Forside
METAR-TAF:

METAR-TAF

Lufthavne :

Kokshetau, Kasakhstan

Breddekreds: 53-19-48N, længdekreds: 069-35-48E, højde: 270 m

Aktuelle vejr

Denne rapport blev lavet for 12 timer og 35 minutter siden, kl. 11:30 UTC
Vind 12 kt fra nordøst, varierende mellem nord og øst
Temperatur 26°C
Fugtighed 42%
Tryk 1012 hPa
Sigt 10 km eller mere
ingen skyer under 1500m og ingen cumulonimbus

METAR: UACK 161130Z 05006MPS 010V080 CAVOK 26/12 Q1012 R02/010070 NOSIG RMK QFE735/0980

Tid: 06:05 (00:05 UTC)

Vejrudsigter

Denne rapport blev lavet for 16 timer og 5 minutter siden, kl. 08:00 UTC
Foreløbig gælder fra 16 på 09 UTC til 16 på 18 UTC
Vind 14 kt fra nordnordøst
Sigt 10 km eller mere
Spredte skyer i en højde af 3300 ft
Brudte skyer i en højde af 10000 ft
Midlertidig
fra 16 på 09 UTC til 16 på 15 UTC
Vind 17 kt fra østnordøst med vindstød på up til 27 kt

TAF: UACK 160800Z 1609/1618 03007MPS 9999 SCT033 BKN100 TEMPO 1609/1615 06009G14MPS

Vejrobservationer og prognoser fra mere end 4000 lufthavne (METAR og TAF).

De gule og røde prikker repræsenterer de meteorologiske stationer.

Flyt musen over at se navnet på stationen.

Så klik over at se vejr observationer og prognoser.

At skifte det kort: Klik på de grønne knapper med et sort kors for at zoome ind; på den grønne knap med en bindestreg for at zoome ud; eller på de grønne pile for tilstødende kort.


METAR-TAF: